Airport View

Enter AWOS ICAO identifier for current METAR.

ex. KFNL

KRVS 191153Z VRB03KT 10SM CLR 14/12 A2981 RMK AO2 SLP102 70162 T01390122 10183 20133 53026

19 May 2019 12:25

Phone: 918-299-0740

Other Area AWOS: KTUL - KOWP - KOKM - KGCM

TAF KRVS 191120Z 1912/2012 25007KT P6SM SCT250 FM191400 30008KT P6SM FEW150 SCT250 FM200000 03004KT P6SM BKN250